Aérodrome :
LOGIN :

S'inscrire | Disclaimer

   EN    FR    IT 

 










Légende :    VFR   VFR Marginal   IFR   IFR Intensif   IFR Très Intensif
Visi : 
Plafond : 
>= 8 km
>= 3000ft
5 à 8 km
1000 à 3000 ft
1500m à 5 km
500 à 1000 ft
800 à 1500m
200 à 500 ft
< 800m
< 200 ft
Symboles :   Orages  Brouillard  Fortes neiges  Fortes précipitations  Vent > 20 kt
SIGMETs :   Divers  Orages  Givrage  Turbulence  Onde Orograph.  Cendres Volcan.







- Altitude de l'aérodrome : 100 ft
- Code IATA : DCI


LIED - Decimomannu Air Base

DERNIER METAR :
  • 210455Z 30004KT 9999 FEW020 SCT060 20/18 Q1013 RMK BKN BKN080 VIS MIN 9999 WIND THR35 32004KT WIND THR17 /////KT BLU

METARs EXPIRÉS :
  • 210355Z 29005KT 9999 SCT020 20/18 Q1013 RMK BKN BKN070 VIS MIN 9999 WIND THR35 29005KT WIND THR17 /////KT BLU
  • 210255Z 04003KT 9999 SCT020 20/18 Q1012 RMK BKN SCT100 VIS MIN 9999 WIND THR35 24002KT WIND THR17 /////KT BLU

TAF TAF LIED
Valide du 21 à 00h jusqu'au 21 à 09h UTC


202300Z 2100/2109 34005KT 9999 SCT025
TEMPO 2102/2106 FEW020CB
Pas de NOTAMs connus pour ce terrain.



MET'MAP, la Météo Aéronautique d'un coup d'oeil ! - Copyright ORBIFLY Décembre 2007 - Disclaimer

ORBIFLY MET'MAP TEAM :

Programmation & Développement : Alexandra Zaïnal
Conception & Développement : Baudouin d'Aumeries
Co-Programmation & Développement : Marc-Olivier Méhu
Soutien technique & logistique : Manuel Goepfert

Contact : metmap@orbifly.com




SOURCES & CREDITS :

   NOAA